Time;durP1;ratioP1;P1;durP2;ratioP2;P2;SDS_P1;SDS_P2;PMS_P1;PMS_P2;Temp;Humidity;BMP_temperature;BMP_pressure;BME280_temperature;BME280_humidity;BME280_pressure;Samples;Min_cycle;Max_cycle;Signal;HPM_P1;HPM_P2
2022/03/14 00:01:52;;;;;;;;;;;9.70;99.90;;;;;;5046643;28;19931;-76
2022/03/14 00:04:17;;;;;;;;;;;9.60;99.90;;;;;;5044527;28;19924;-76
2022/03/14 00:06:44;;;;;;;;;;;9.50;99.90;;;;;;5028888;28;19925;-76
2022/03/14 00:09:10;;;;;;;;;;;9.40;99.90;;;;;;5027676;28;19925;-76
2022/03/14 00:11:35;;;;;;;;;;;9.40;99.90;;;;;;5027325;28;20372;-75
2022/03/14 00:14:05;;;;;;;;;;;9.30;99.90;;;;;;5028862;28;19925;-75
2022/03/14 00:16:36;;;;;;;;;;;9.30;99.90;;;;;;5028987;28;19925;-75
2022/03/14 00:19:02;;;;;;;;;;;9.20;99.90;;;;;;5030209;28;19952;-75
2022/03/14 00:21:28;;;;;;;;;;;9.20;99.90;;;;;;5026639;28;19925;-75
2022/03/14 00:23:55;;;;;;;;;;;9.20;99.90;;;;;;5029208;28;19947;-75
2022/03/14 00:26:22;;;;;;;;;;;9.10;99.90;;;;;;5028840;28;19932;-75
2022/03/14 00:28:48;;;;;;;;;;;9.10;99.90;;;;;;5027213;28;19925;-75
2022/03/14 00:31:13;;;;;;;;;;;9.10;99.90;;;;;;5028673;28;19931;-75
2022/03/14 00:33:39;;;;;;;;;;;9.10;99.90;;;;;;5028570;28;19995;-75
2022/03/14 00:36:05;;;;;;;;;;;9.00;99.90;;;;;;5028786;28;19935;-75
2022/03/14 00:38:32;;;;;;;;;;;9.00;99.90;;;;;;5027384;28;19925;-75
2022/03/14 00:40:59;;;;;;;;;;;9.00;99.90;;;;;;5027725;28;20289;-77
2022/03/14 00:43:24;;;;;;;;;;;9.10;99.90;;;;;;5027852;28;20032;-77
2022/03/14 00:45:50;;;;;;;;;;;9.10;99.90;;;;;;5027560;28;20019;-76
2022/03/14 00:48:15;;;;;;;;;;;9.20;99.90;;;;;;5027228;28;20032;-75
2022/03/14 00:50:42;;;;;;;;;;;9.20;99.90;;;;;;5027804;28;20674;-75
2022/03/14 00:53:08;;;;;;;;;;;9.30;99.90;;;;;;5026910;28;19924;-75
2022/03/14 00:55:34;;;;;;;;;;;9.20;99.90;;;;;;5027549;28;19935;-76
2022/03/14 00:57:59;;;;;;;;;;;9.20;99.90;;;;;;5028116;28;19925;-76
2022/03/14 01:00:25;;;;;;;;;;;9.20;99.90;;;;;;5027337;28;19967;-77
2022/03/14 01:02:51;;;;;;;;;;;9.20;99.90;;;;;;5028732;28;19951;-76
2022/03/14 01:05:17;;;;;;;;;;;9.20;99.90;;;;;;5027380;28;19929;-75
2022/03/14 01:07:42;;;;;;;;;;;9.20;99.90;;;;;;5028246;28;19948;-75
2022/03/14 01:10:08;;;;;;;;;;;9.60;99.90;;;;;;5046259;28;19920;-76
2022/03/14 01:12:34;;;;;;;;;;;9.10;99.90;;;;;;5051693;28;19921;-76
2022/03/14 01:14:59;;;;;;;;;;;9.00;99.90;;;;;;5054474;28;19956;-76
2022/03/14 01:17:24;;;;;;;;;;;9.10;99.90;;;;;;5055721;28;19921;-75
2022/03/14 01:19:50;;;;;;;;;;;9.00;99.90;;;;;;5053679;28;20011;-76
2022/03/14 01:22:15;;;;;;;;;;;8.90;99.90;;;;;;5036195;28;19928;-76
2022/03/14 01:24:43;;;;;;;;;;;8.90;99.90;;;;;;5035967;28;19920;-75
2022/03/14 01:27:08;;;;;;;;;;;8.90;99.90;;;;;;5035036;28;20340;-76
2022/03/14 01:29:37;;;;;;;;;;;8.90;99.90;;;;;;5035465;28;20015;-76
2022/03/14 01:32:04;;;;;;;;;;;8.90;99.90;;;;;;5035577;28;19921;-76
2022/03/14 01:34:29;;;;;;;;;;;8.90;99.90;;;;;;5035753;28;19944;-76
2022/03/14 01:36:58;;;;;;;;;;;8.80;99.90;;;;;;5036168;28;20296;-76
2022/03/14 01:39:23;;;;;;;;;;;8.80;99.90;;;;;;5036136;28;20287;-76
2022/03/14 01:41:49;;;;;;;;;;;8.80;99.90;;;;;;5035727;28;20293;-76
2022/03/14 01:44:14;;;;;;;;;;;8.80;99.90;;;;;;5035763;28;19967;-76
2022/03/14 01:46:40;;;;;;;;;;;8.80;99.90;;;;;;5034384;28;19924;-75
2022/03/14 01:49:37;;;;;;;;;;;8.80;99.90;;;;;;5035926;28;20296;-76
2022/03/14 01:52:05;;;;;;;;;;;8.80;99.90;;;;;;5034810;28;20380;-76
2022/03/14 01:54:34;;;;;;;;;;;8.80;99.90;;;;;;5035286;28;19928;-76
2022/03/14 01:56:59;;;;;;;;;;;8.80;99.90;;;;;;5035814;28;19925;-76
2022/03/14 01:59:28;;;;;;;;;;;8.80;99.90;;;;;;5034731;28;19928;-75
2022/03/14 02:01:55;;;;;;;;;;;8.80;99.90;;;;;;5036551;28;20337;-76
2022/03/14 02:04:21;;;;;;;;;;;8.80;99.90;;;;;;5035481;28;19921;-75
2022/03/14 02:06:46;;;;;;;;;;;8.80;99.90;;;;;;5033750;28;20000;-75
2022/03/14 02:09:12;;;;;;;;;;;8.80;99.90;;;;;;5035150;28;20008;-75
2022/03/14 02:11:38;;;;;;;;;;;8.80;99.90;;;;;;5035331;28;19972;-75
2022/03/14 02:14:06;;;;;;;;;;;8.80;99.90;;;;;;5050026;28;19927;-74
2022/03/14 02:16:31;;;;;;;;;;;8.80;99.90;;;;;;5055312;28;19920;-75
2022/03/14 02:18:57;;;;;;;;;;;8.80;99.90;;;;;;5055212;28;19925;-76
2022/03/14 02:21:22;;;;;;;;;;;8.80;99.90;;;;;;5053090;28;19931;-76
2022/03/14 02:23:48;;;;;;;;;;;8.70;99.90;;;;;;5054227;28;19960;-76
2022/03/14 02:26:13;;;;;;;;;;;8.70;99.90;;;;;;5052610;28;19928;-75
2022/03/14 02:28:39;;;;;;;;;;;8.70;99.90;;;;;;5054608;28;19971;-76
2022/03/14 02:31:04;;;;;;;;;;;8.70;99.90;;;;;;5054949;28;20338;-76
2022/03/14 02:33:30;;;;;;;;;;;8.70;99.90;;;;;;5053842;28;19924;-76
2022/03/14 02:35:56;;;;;;;;;;;8.70;99.90;;;;;;5052804;28;19927;-76
2022/03/14 02:38:21;;;;;;;;;;;8.70;99.90;;;;;;5053616;28;19925;-76
2022/03/14 02:40:48;;;;;;;;;;;8.70;99.90;;;;;;5054756;28;19921;-76
2022/03/14 02:43:22;;;;;;;;;;;8.70;99.90;;;;;;5054072;28;19929;-76
2022/03/14 02:45:48;;;;;;;;;;;8.70;99.90;;;;;;5052711;28;19921;-76
2022/03/14 02:48:14;;;;;;;;;;;8.90;99.90;;;;;;5034648;28;19921;-76
2022/03/14 02:50:42;;;;;;;;;;;8.70;99.90;;;;;;5034469;28;19928;-77
2022/03/14 02:53:09;;;;;;;;;;;8.70;99.90;;;;;;5033286;28;19920;-77
2022/03/14 02:55:36;;;;;;;;;;;8.70;99.90;;;;;;5033864;28;20011;-77
2022/03/14 02:58:01;;;;;;;;;;;8.70;99.90;;;;;;5035065;28;19920;-77
2022/03/14 03:00:30;;;;;;;;;;;8.70;99.90;;;;;;5034392;28;19928;-77
2022/03/14 03:02:56;;;;;;;;;;;8.70;99.90;;;;;;5034846;28;20752;-77
2022/03/14 03:05:22;;;;;;;;;;;8.70;99.90;;;;;;5034095;28;19968;-76
2022/03/14 03:07:48;;;;;;;;;;;8.70;99.90;;;;;;5034472;28;19920;-77
2022/03/14 03:10:16;;;;;;;;;;;8.70;99.90;;;;;;5033555;28;19928;-77
2022/03/14 03:12:42;;;;;;;;;;;8.70;99.90;;;;;;5032922;28;19928;-76
2022/03/14 03:15:08;;;;;;;;;;;8.70;99.90;;;;;;5032720;28;19921;-76
2022/03/14 03:17:34;;;;;;;;;;;8.70;99.90;;;;;;5034691;28;19921;-77
2022/03/14 03:19:59;;;;;;;;;;;8.70;99.90;;;;;;5033130;28;19921;-77
2022/03/14 03:22:26;;;;;;;;;;;8.70;99.90;;;;;;5033763;28;19921;-77
2022/03/14 03:24:52;;;;;;;;;;;8.60;99.90;;;;;;5032048;28;20350;-76
2022/03/14 03:27:19;;;;;;;;;;;8.60;99.90;;;;;;5033749;28;20003;-76
2022/03/14 03:29:44;;;;;;;;;;;8.60;99.90;;;;;;5034162;28;20304;-76
2022/03/14 03:32:10;;;;;;;;;;;8.70;99.90;;;;;;5034189;28;19921;-77
2022/03/14 03:34:35;;;;;;;;;;;8.70;99.90;;;;;;5033683;28;19921;-77
2022/03/14 03:37:01;;;;;;;;;;;8.70;99.90;;;;;;5033413;28;19921;-77
2022/03/14 03:39:27;;;;;;;;;;;8.70;99.90;;;;;;5032943;28;19921;-77
2022/03/14 03:41:52;;;;;;;;;;;8.70;99.90;;;;;;5034534;28;19921;-76
2022/03/14 03:44:18;;;;;;;;;;;8.70;99.90;;;;;;5053319;28;19921;-76
2022/03/14 03:46:43;;;;;;;;;;;8.70;99.90;;;;;;5052987;28;20292;-77
2022/03/14 03:49:09;;;;;;;;;;;8.70;99.90;;;;;;5053247;28;19920;-76
2022/03/14 03:51:34;;;;;;;;;;;8.70;99.90;;;;;;5053715;28;19926;-76
2022/03/14 03:54:00;;;;;;;;;;;8.70;99.90;;;;;;5035977;28;19928;-76
2022/03/14 03:56:25;;;;;;;;;;;8.70;99.90;;;;;;5033104;28;20372;-77
2022/03/14 03:58:51;;;;;;;;;;;8.80;99.90;;;;;;5032205;28;20015;-77
2022/03/14 04:01:19;;;;;;;;;;;8.90;99.90;;;;;;5033019;28;20359;-77
2022/03/14 04:03:54;;;;;;;;;;;8.90;99.90;;;;;;5032538;28;19921;-77
2022/03/14 04:06:27;;;;;;;;;;;8.90;99.90;;;;;;5032128;28;20004;-77
2022/03/14 04:08:54;;;;;;;;;;;9.00;99.90;;;;;;5034620;28;19974;-77
2022/03/14 04:11:20;;;;;;;;;;;9.00;99.90;;;;;;5031713;28;19924;-77
2022/03/14 04:13:46;;;;;;;;;;;9.00;99.90;;;;;;5031374;28;19975;-77
2022/03/14 04:16:14;;;;;;;;;;;9.00;99.90;;;;;;5032919;28;19921;-76
2022/03/14 04:18:40;;;;;;;;;;;8.90;99.90;;;;;;5031996;28;19974;-77
2022/03/14 04:21:05;;;;;;;;;;;9.00;99.90;;;;;;5031431;28;20035;-77
2022/03/14 04:23:31;;;;;;;;;;;8.90;99.90;;;;;;5033414;28;19928;-77
2022/03/14 04:25:56;;;;;;;;;;;8.80;99.90;;;;;;5040898;28;19999;-77
2022/03/14 04:28:22;;;;;;;;;;;8.80;99.90;;;;;;5052239;28;19924;-77
2022/03/14 04:30:48;;;;;;;;;;;8.80;99.90;;;;;;5051886;28;19943;-77
2022/03/14 04:33:13;;;;;;;;;;;8.70;99.90;;;;;;5052855;28;20409;-77
2022/03/14 04:35:39;;;;;;;;;;;8.70;99.90;;;;;;5050855;28;19928;-77
2022/03/14 04:38:07;;;;;;;;;;;8.80;99.90;;;;;;5049758;28;19920;-77
2022/03/14 04:40:33;;;;;;;;;;;8.80;99.90;;;;;;5051786;28;19990;-77
2022/03/14 04:43:02;;;;;;;;;;;8.70;99.90;;;;;;5052301;28;20383;-77
2022/03/14 04:45:28;;;;;;;;;;;8.80;99.90;;;;;;5052373;28;20028;-77
2022/03/14 04:47:53;;;;;;;;;;;8.70;99.90;;;;;;5053380;28;20387;-76
2022/03/14 04:50:19;;;;;;;;;;;8.70;99.90;;;;;;5052515;28;19920;-76
2022/03/14 04:52:45;;;;;;;;;;;8.60;99.90;;;;;;5057191;28;19921;-76
2022/03/14 04:55:11;;;;;;;;;;;8.60;99.90;;;;;;5056053;28;20407;-77
2022/03/14 04:57:36;;;;;;;;;;;8.50;99.90;;;;;;5056793;28;20351;-77
2022/03/14 05:00:04;;;;;;;;;;;8.50;99.90;;;;;;5043509;28;19925;-77
2022/03/14 05:02:29;;;;;;;;;;;8.50;99.90;;;;;;5036443;28;20090;-77
2022/03/14 05:04:55;;;;;;;;;;;8.40;99.90;;;;;;5036577;28;19987;-77
2022/03/14 05:07:20;;;;;;;;;;;8.40;99.90;;;;;;5035923;28;19921;-77
2022/03/14 05:09:46;;;;;;;;;;;8.40;99.90;;;;;;5035216;28;20579;-77
2022/03/14 05:12:12;;;;;;;;;;;8.40;99.90;;;;;;5036394;28;20388;-77
2022/03/14 05:14:40;;;;;;;;;;;8.50;99.90;;;;;;5037511;28;20356;-77
2022/03/14 05:17:06;;;;;;;;;;;8.50;99.90;;;;;;5035447;28;19927;-77
2022/03/14 05:19:31;;;;;;;;;;;8.40;99.90;;;;;;5035341;28;19921;-77
2022/03/14 05:21:57;;;;;;;;;;;8.40;99.90;;;;;;5036230;28;20310;-77
2022/03/14 05:24:23;;;;;;;;;;;8.50;99.90;;;;;;5034340;28;19932;-77
2022/03/14 05:26:49;;;;;;;;;;;8.50;99.90;;;;;;5036112;28;20368;-76
2022/03/14 05:29:15;;;;;;;;;;;8.50;99.90;;;;;;5037110;28;19939;-77
2022/03/14 05:31:42;;;;;;;;;;;8.50;99.90;;;;;;5034626;28;20304;-77
2022/03/14 05:34:07;;;;;;;;;;;8.50;99.90;;;;;;5034622;28;19928;-77
2022/03/14 05:36:33;;;;;;;;;;;8.50;99.90;;;;;;5035781;28;20452;-77
2022/03/14 05:38:58;;;;;;;;;;;8.50;99.90;;;;;;5035883;28;19921;-77
2022/03/14 05:41:24;;;;;;;;;;;8.50;99.90;;;;;;5035553;28;19920;-77
2022/03/14 05:43:52;;;;;;;;;;;8.50;99.90;;;;;;5036290;28;19921;-76
2022/03/14 05:46:17;;;;;;;;;;;8.50;99.90;;;;;;5035702;28;19975;-77
2022/03/14 05:48:43;;;;;;;;;;;8.50;99.90;;;;;;5041562;28;19931;-78
2022/03/14 05:51:09;;;;;;;;;;;8.50;99.90;;;;;;5054566;28;19921;-77
2022/03/14 05:53:35;;;;;;;;;;;8.50;99.90;;;;;;5045026;28;20343;-76
2022/03/14 05:56:00;;;;;;;;;;;8.50;99.90;;;;;;5038137;28;20058;-75
2022/03/14 05:58:26;;;;;;;;;;;8.60;99.90;;;;;;5044121;28;19960;-76
2022/03/14 06:00:52;;;;;;;;;;;8.60;99.90;;;;;;5046584;28;19921;-76
2022/03/14 06:03:21;;;;;;;;;;;8.60;99.90;;;;;;5049446;28;19925;-81
2022/03/14 06:05:49;;;;;;;;;;;8.70;99.90;;;;;;5034882;28;19925;-84
2022/03/14 06:08:15;;;;;;;;;;;8.70;99.90;;;;;;5034818;28;20028;-81
2022/03/14 06:10:43;;;;;;;;;;;8.70;99.90;;;;;;5050604;28;20016;-82
2022/03/14 06:13:08;;;;;;;;;;;8.80;99.90;;;;;;5052434;28;20396;-80
2022/03/14 06:15:34;;;;;;;;;;;8.80;99.90;;;;;;5034071;28;20013;-80
2022/03/14 06:18:02;;;;;;;;;;;8.80;99.90;;;;;;5035370;28;20284;-80
2022/03/14 06:20:28;;;;;;;;;;;8.80;99.90;;;;;;5034670;28;19917;-79
2022/03/14 06:22:53;;;;;;;;;;;8.80;99.90;;;;;;5046560;28;19928;-77
2022/03/14 06:25:19;;;;;;;;;;;8.80;99.90;;;;;;5054504;28;19967;-77
2022/03/14 06:27:45;;;;;;;;;;;8.90;99.90;;;;;;5054351;28;19917;-84
2022/03/14 06:30:11;;;;;;;;;;;9.00;99.90;;;;;;5052865;28;19920;-85
2022/03/14 06:32:38;;;;;;;;;;;8.80;99.90;;;;;;5033945;28;20332;-82
2022/03/14 06:35:05;;;;;;;;;;;8.80;99.90;;;;;;5041770;28;19921;-82
2022/03/14 06:37:30;;;;;;;;;;;8.80;99.90;;;;;;5046919;28;19921;-88
2022/03/14 06:39:56;;;;;;;;;;;8.70;99.90;;;;;;5033873;28;19975;-82
2022/03/14 06:42:23;;;;;;;;;;;8.70;99.90;;;;;;5040052;28;20028;-81
2022/03/14 06:44:50;;;;;;;;;;;8.80;99.90;;;;;;5047973;28;19956;-81
2022/03/14 06:47:19;;;;;;;;;;;8.90;99.90;;;;;;5045838;28;19974;-81
2022/03/14 06:49:45;;;;;;;;;;;8.80;99.90;;;;;;5054483;28;19967;-83
2022/03/14 06:52:17;;;;;;;;;;;8.90;99.90;;;;;;5048945;28;19925;-81
2022/03/14 06:54:42;;;;;;;;;;;8.90;99.90;;;;;;5032834;28;19928;-82
2022/03/14 06:57:09;;;;;;;;;;;8.90;99.90;;;;;;5034153;28;19968;-80
2022/03/14 06:59:35;;;;;;;;;;;8.90;99.90;;;;;;5038405;28;19924;-78
2022/03/14 07:02:01;;;;;;;;;;;9.00;99.90;;;;;;5044864;28;19928;-78
2022/03/14 07:04:27;;;;;;;;;;;9.00;99.90;;;;;;5045021;28;20007;-79
2022/03/14 07:06:52;;;;;;;;;;;9.00;99.90;;;;;;5044245;28;20007;-82
2022/03/14 07:09:18;;;;;;;;;;;9.00;99.90;;;;;;5051344;28;20016;-78
2022/03/14 07:11:44;;;;;;;;;;;9.00;99.90;;;;;;5051551;28;19921;-75
2022/03/14 07:14:09;;;;;;;;;;;9.00;99.90;;;;;;5051418;28;20118;-74
2022/03/14 07:16:35;;;;;;;;;;;9.00;99.90;;;;;;5052345;28;19921;-75
2022/03/14 07:19:00;;;;;;;;;;;9.00;99.90;;;;;;5051781;28;19916;-76
2022/03/14 07:21:29;;;;;;;;;;;9.10;99.90;;;;;;5041455;28;19921;-76
2022/03/14 07:23:57;;;;;;;;;;;9.00;99.90;;;;;;5033869;28;20037;-76
2022/03/14 07:26:23;;;;;;;;;;;9.10;99.90;;;;;;5032933;28;19931;-77
2022/03/14 07:28:49;;;;;;;;;;;9.00;99.90;;;;;;5033659;28;19925;-76
2022/03/14 07:31:23;;;;;;;;;;;9.10;99.90;;;;;;5031830;28;19924;-76
2022/03/14 07:33:49;;;;;;;;;;;9.10;99.90;;;;;;5052932;28;19928;-79
2022/03/14 07:36:15;;;;;;;;;;;9.00;99.90;;;;;;5053153;28;19920;-80
2022/03/14 07:38:40;;;;;;;;;;;9.00;99.90;;;;;;5051441;28;19920;-83
2022/03/14 07:41:06;;;;;;;;;;;9.10;99.90;;;;;;5051815;28;19928;-83
2022/03/14 07:43:31;;;;;;;;;;;9.00;99.90;;;;;;5043560;28;20280;-83
2022/03/14 07:45:57;;;;;;;;;;;9.10;99.90;;;;;;5048065;28;19924;-89
2022/03/14 07:48:23;;;;;;;;;;;9.10;99.90;;;;;;5053360;28;19931;-90
2022/03/14 07:50:49;;;;;;;;;;;9.10;99.90;;;;;;5053141;28;19971;-83
2022/03/14 07:53:14;;;;;;;;;;;9.10;99.90;;;;;;5051179;28;19920;-86
2022/03/14 07:55:40;;;;;;;;;;;9.10;99.90;;;;;;5053331;28;19920;-84
2022/03/14 07:58:05;;;;;;;;;;;9.20;99.90;;;;;;5050135;28;19928;-81
2022/03/14 08:00:31;;;;;;;;;;;9.20;99.90;;;;;;5032350;28;19921;-82
2022/03/14 08:02:56;;;;;;;;;;;9.20;99.90;;;;;;5033365;28;19925;-85
2022/03/14 08:05:26;;;;;;;;;;;9.20;99.90;;;;;;5037151;28;19925;-85
2022/03/14 08:07:53;;;;;;;;;;;9.20;99.90;;;;;;5039604;28;19921;-81
2022/03/14 08:10:18;;;;;;;;;;;9.20;99.90;;;;;;5042096;28;20011;-79
2022/03/14 08:12:49;;;;;;;;;;;9.20;99.90;;;;;;5040714;28;19979;-79
2022/03/14 08:15:24;;;;;;;;;;;9.20;99.90;;;;;;5050182;28;20394;-84
2022/03/14 08:17:50;;;;;;;;;;;9.20;99.90;;;;;;5046292;28;19928;-80
2022/03/14 08:20:16;;;;;;;;;;;9.10;99.90;;;;;;5052140;28;19966;-80
2022/03/14 08:22:41;;;;;;;;;;;9.10;99.90;;;;;;5052606;28;20007;-80
2022/03/14 08:25:07;;;;;;;;;;;9.10;99.90;;;;;;5052089;28;19921;-80
2022/03/14 08:27:36;;;;;;;;;;;9.10;99.90;;;;;;5050602;28;20038;-80
2022/03/14 08:30:02;;;;;;;;;;;9.20;99.90;;;;;;5051553;28;19921;-80
2022/03/14 08:32:28;;;;;;;;;;;9.20;99.90;;;;;;5052381;28;19925;-80
2022/03/14 08:34:54;;;;;;;;;;;9.20;99.90;;;;;;5052127;28;19927;-80
2022/03/14 08:37:20;;;;;;;;;;;9.20;99.90;;;;;;5052434;28;19920;-80
2022/03/14 08:39:47;;;;;;;;;;;9.20;99.90;;;;;;5052089;28;19925;-82
2022/03/14 08:42:12;;;;;;;;;;;9.10;99.90;;;;;;5039560;28;19921;-77
2022/03/14 08:44:38;;;;;;;;;;;9.00;99.90;;;;;;5044598;28;19921;-78
2022/03/14 08:47:04;;;;;;;;;;;9.00;99.90;;;;;;5044470;28;19916;-78
2022/03/14 08:49:29;;;;;;;;;;;9.00;99.90;;;;;;5052068;28;19928;-77
2022/03/14 08:51:55;;;;;;;;;;;9.00;99.90;;;;;;5045400;28;20284;-79
2022/03/14 08:54:20;;;;;;;;;;;9.20;99.90;;;;;;5036440;28;20368;-80
2022/03/14 08:56:46;;;;;;;;;;;8.90;99.90;;;;;;5032408;28;19921;-80
2022/03/14 08:59:12;;;;;;;;;;;8.90;99.90;;;;;;5033570;28;19921;-75
2022/03/14 09:01:38;;;;;;;;;;;9.00;99.90;;;;;;5032281;28;20767;-82
2022/03/14 09:04:04;;;;;;;;;;;9.00;99.90;;;;;;5031928;28;20379;-80
2022/03/14 09:06:30;;;;;;;;;;;9.00;99.90;;;;;;5035752;28;19927;-80
2022/03/14 09:08:55;;;;;;;;;;;9.00;99.90;;;;;;5043844;28;20296;-79
2022/03/14 09:11:21;;;;;;;;;;;9.00;99.90;;;;;;5032095;28;19932;-79
2022/03/14 09:13:46;;;;;;;;;;;9.00;99.90;;;;;;5031114;28;19929;-79
2022/03/14 09:16:12;;;;;;;;;;;9.10;99.90;;;;;;5031355;28;19932;-79
2022/03/14 09:18:38;;;;;;;;;;;9.10;99.90;;;;;;5031363;28;19927;-80
2022/03/14 09:21:04;;;;;;;;;;;9.10;99.90;;;;;;5046834;28;19927;-80
2022/03/14 09:23:30;;;;;;;;;;;9.10;99.90;;;;;;5051572;28;19921;-78
2022/03/14 09:25:56;;;;;;;;;;;9.10;99.90;;;;;;5048064;28;20300;-77
2022/03/14 09:28:21;;;;;;;;;;;9.10;99.90;;;;;;5035137;28;19923;-79
2022/03/14 09:30:47;;;;;;;;;;;9.20;99.90;;;;;;5036537;28;20421;-79
2022/03/14 09:33:13;;;;;;;;;;;9.20;99.90;;;;;;5037610;28;19921;-80
2022/03/14 09:35:43;;;;;;;;;;;9.30;99.90;;;;;;5033215;28;19927;-80
2022/03/14 09:38:12;;;;;;;;;;;9.40;99.90;;;;;;5035712;28;19975;-79
2022/03/14 09:40:37;;;;;;;;;;;9.50;99.90;;;;;;5035907;28;19925;-78
2022/03/14 09:43:03;;;;;;;;;;;9.50;99.90;;;;;;5036392;28;19967;-80
2022/03/14 09:45:30;;;;;;;;;;;10.10;99.90;;;;;;5035366;28;19920;-82
2022/03/14 09:47:59;;;;;;;;;;;9.80;99.90;;;;;;5034682;28;19921;-89
2022/03/14 09:50:33;;;;;;;;;;;9.90;99.90;;;;;;5041289;28;19929;-83
2022/03/14 09:53:02;;;;;;;;;;;9.90;99.90;;;;;;5043017;28;19921;-91
2022/03/14 09:55:28;;;;;;;;;;;10.10;99.90;;;;;;5054241;28;19931;-80
2022/03/14 09:57:55;;;;;;;;;;;10.10;99.90;;;;;;5055331;28;20035;-81
2022/03/14 10:00:20;;;;;;;;;;;10.10;99.90;;;;;;5051441;28;19921;-82
2022/03/14 10:02:46;;;;;;;;;;;10.10;99.90;;;;;;5045474;28;19928;-81
2022/03/14 10:05:13;;;;;;;;;;;10.20;99.90;;;;;;5034842;28;19943;-83
2022/03/14 10:07:39;;;;;;;;;;;10.80;99.90;;;;;;5034932;28;19974;-91
2022/03/14 10:10:07;;;;;;;;;;;10.30;99.90;;;;;;5035152;28;20028;-88
2022/03/14 10:12:33;;;;;;;;;;;10.30;99.90;;;;;;5036564;28;20015;-86
2022/03/14 10:14:59;;;;;;;;;;;10.30;99.90;;;;;;5035399;28;19928;-85
2022/03/14 10:17:25;;;;;;;;;;;10.40;99.90;;;;;;5035626;28;19928;-81
2022/03/14 10:19:54;;;;;;;;;;;10.40;99.90;;;;;;5034245;28;19921;-84
2022/03/14 10:22:20;;;;;;;;;;;10.40;99.90;;;;;;5041010;28;19920;-83
2022/03/14 10:24:47;;;;;;;;;;;10.30;99.90;;;;;;5045760;28;20039;-85
2022/03/14 10:27:16;;;;;;;;;;;10.30;99.90;;;;;;5054178;28;20007;-83
2022/03/14 10:29:43;;;;;;;;;;;10.20;99.90;;;;;;5050117;28;20283;-81
2022/03/14 10:32:19;;;;;;;;;;;10.10;99.90;;;;;;5045336;28;19990;-82
2022/03/14 10:34:58;;;;;;;;;;;10.10;99.90;;;;;;5052203;28;19924;-88
2022/03/14 10:37:27;;;;;;;;;;;10.20;99.90;;;;;;5055097;28;20447;-81
2022/03/14 10:39:57;;;;;;;;;;;10.30;99.90;;;;;;5052150;28;20011;-83
2022/03/14 10:42:23;;;;;;;;;;;10.40;99.90;;;;;;5046782;28;20337;-82
2022/03/14 10:44:49;;;;;;;;;;;10.50;99.90;;;;;;5042975;28;20003;-83
2022/03/14 10:47:15;;;;;;;;;;;10.40;99.90;;;;;;5044304;28;19975;-81
2022/03/14 10:49:43;;;;;;;;;;;10.50;99.90;;;;;;5049569;28;19924;-81
2022/03/14 10:52:17;;;;;;;;;;;10.50;99.90;;;;;;5052980;28;19921;-82
2022/03/14 10:54:42;;;;;;;;;;;10.60;99.90;;;;;;5048630;28;19925;-85
2022/03/14 10:57:09;;;;;;;;;;;10.50;99.90;;;;;;5033148;28;19932;-77
2022/03/14 10:59:35;;;;;;;;;;;10.50;99.90;;;;;;5033652;28;19964;-80
2022/03/14 11:02:01;;;;;;;;;;;10.50;99.90;;;;;;5033753;28;19979;-80
2022/03/14 11:04:27;;;;;;;;;;;10.40;99.90;;;;;;5034556;28;19921;-81
2022/03/14 11:07:01;;;;;;;;;;;10.40;99.90;;;;;;5043696;28;20338;-82
2022/03/14 11:09:51;;;;;;;;;;;10.40;99.90;;;;;;5032535;28;19925;-88
2022/03/14 11:12:20;;;;;;;;;;;10.40;99.90;;;;;;5025148;28;20004;-84
2022/03/14 11:14:54;;;;;;;;;;;10.40;99.90;;;;;;5038995;28;20314;-82
2022/03/14 11:17:21;;;;;;;;;;;10.50;99.90;;;;;;5037784;28;19967;-80
2022/03/14 11:19:56;;;;;;;;;;;10.60;99.90;;;;;;5045921;28;19921;-82
2022/03/14 11:22:22;;;;;;;;;;;10.50;99.90;;;;;;5049234;28;20016;-83
2022/03/14 11:24:49;;;;;;;;;;;10.50;99.90;;;;;;5053136;28;19947;-84
2022/03/14 11:27:22;;;;;;;;;;;10.50;99.90;;;;;;5053496;28;19920;-88
2022/03/14 11:29:49;;;;;;;;;;;10.50;99.90;;;;;;5053042;28;20019;-87
2022/03/14 11:32:18;;;;;;;;;;;10.60;99.90;;;;;;5053724;28;19927;-86
2022/03/14 11:34:45;;;;;;;;;;;10.60;99.90;;;;;;5053932;28;19928;-87
2022/03/14 11:37:11;;;;;;;;;;;11.80;99.90;;;;;;5042015;28;20359;-82
2022/03/14 11:39:37;;;;;;;;;;;10.70;99.90;;;;;;5034944;28;19921;-84
2022/03/14 11:42:03;;;;;;;;;;;10.70;99.90;;;;;;5042504;28;20333;-84
2022/03/14 11:44:28;;;;;;;;;;;10.70;99.90;;;;;;5035831;28;20396;-85
2022/03/14 11:46:54;;;;;;;;;;;10.70;99.90;;;;;;5033873;28;20016;-86
2022/03/14 11:49:23;;;;;;;;;;;10.70;99.90;;;;;;5033167;28;19963;-83
2022/03/14 11:51:48;;;;;;;;;;;10.80;99.90;;;;;;5034383;28;19917;-86
2022/03/14 11:54:14;;;;;;;;;;;10.90;99.90;;;;;;5032481;28;19944;-84
2022/03/14 11:56:56;;;;;;;;;;;11.00;99.90;;;;;;5032525;28;20300;-84
2022/03/14 11:59:26;;;;;;;;;;;11.00;99.90;;;;;;5031621;28;19921;-84
2022/03/14 12:01:52;;;;;;;;;;;11.10;99.90;;;;;;5043243;28;19927;-87
2022/03/14 12:04:37;;;;;;;;;;;11.10;99.90;;;;;;5046707;28;19928;-85
2022/03/14 12:07:08;;;;;;;;;;;11.10;99.90;;;;;;5053350;28;19931;-81
2022/03/14 12:09:33;;;;;;;;;;;11.20;99.90;;;;;;5036911;28;19921;-86
2022/03/14 12:12:19;;;;;;;;;;;11.50;99.90;;;;;;5046927;28;19920;-85
2022/03/14 12:14:44;;;;;;;;;;;11.50;99.90;;;;;;5036820;28;19928;-85
2022/03/14 12:17:13;;;;;;;;;;;11.80;99.90;;;;;;5046955;28;19921;-85
2022/03/14 12:19:48;;;;;;;;;;;11.80;99.90;;;;;;5032760;28;20384;-83
2022/03/14 12:22:32;;;;;;;;;;;11.90;99.90;;;;;;5045016;28;20330;-83
2022/03/14 12:24:59;;;;;;;;;;;12.10;99.90;;;;;;5051395;28;19951;-86
2022/03/14 12:27:24;;;;;;;;;;;12.20;99.90;;;;;;5046017;28;19925;-88
2022/03/14 12:29:51;;;;;;;;;;;12.30;99.90;;;;;;5042860;28;19927;-86
2022/03/14 12:32:34;;;;;;;;;;;12.50;99.90;;;;;;5050673;28;19931;-84
2022/03/14 12:35:01;;;;;;;;;;;12.40;99.90;;;;;;5035959;28;19925;-84
2022/03/14 12:37:47;;;;;;;;;;;12.50;99.90;;;;;;5050044;28;19924;-85
2022/03/14 12:40:19;;;;;;;;;;;12.50;99.90;;;;;;5038050;28;19921;-85
2022/03/14 12:42:45;;;;;;;;;;;12.60;99.90;;;;;;5050770;28;20241;-84
2022/03/14 12:45:17;;;;;;;;;;;13.30;99.90;;;;;;5047335;28;19921;-86
2022/03/14 12:47:47;;;;;;;;;;;12.70;99.90;;;;;;5041429;28;19971;-84
2022/03/14 12:50:33;;;;;;;;;;;12.80;99.90;;;;;;5047189;28;19960;-84
2022/03/14 12:52:59;;;;;;;;;;;12.80;99.90;;;;;;5035746;28;19982;-81
2022/03/14 12:55:25;;;;;;;;;;;12.70;99.90;;;;;;5051999;28;19924;-85
2022/03/14 12:57:52;;;;;;;;;;;12.80;99.90;;;;;;5046683;28;19921;-81
2022/03/14 13:00:18;;;;;;;;;;;12.90;99.90;;;;;;5047338;28;19935;-85
2022/03/14 13:02:44;;;;;;;;;;;13.30;99.90;;;;;;5052405;28;19921;-81
2022/03/14 13:05:09;;;;;;;;;;;13.40;99.90;;;;;;5036295;28;20415;-83
2022/03/14 13:07:35;;;;;;;;;;;13.50;99.90;;;;;;5045392;28;19967;-83
2022/03/14 13:10:01;;;;;;;;;;;13.60;99.90;;;;;;5050887;28;20364;-84
2022/03/14 13:12:29;;;;;;;;;;;13.70;99.90;;;;;;5057497;28;20371;-84
2022/03/14 13:15:08;;;;;;;;;;;14.40;99.90;;;;;;5040848;28;19921;-85
2022/03/14 13:17:34;;;;;;;;;;;13.70;99.90;;;;;;5057547;28;19921;-82
2022/03/14 13:19:59;;;;;;;;;;;13.70;99.90;;;;;;5042948;28;20490;-85
2022/03/14 13:22:25;;;;;;;;;;;13.80;99.90;;;;;;5043328;28;20008;-84
2022/03/14 13:24:53;;;;;;;;;;;14.30;99.90;;;;;;5040121;28;19925;-84
2022/03/14 13:27:25;;;;;;;;;;;13.70;99.90;;;;;;5041958;28;19990;-84
2022/03/14 13:29:52;;;;;;;;;;;13.60;99.90;;;;;;5054311;28;19924;-84
2022/03/14 13:32:18;;;;;;;;;;;13.90;99.90;;;;;;5041038;28;20024;-84
2022/03/14 13:35:04;;;;;;;;;;;13.70;99.90;;;;;;5042920;28;20006;-85
2022/03/14 13:37:30;;;;;;;;;;;13.50;99.90;;;;;;5041981;28;20509;-83
2022/03/14 13:40:01;;;;;;;;;;;13.60;99.90;;;;;;5054312;28;19920;-84
2022/03/14 13:42:27;;;;;;;;;;;13.70;99.90;;;;;;5039352;28;19982;-84
2022/03/14 13:44:55;;;;;;;;;;;13.60;99.90;;;;;;5035392;28;19921;-85
2022/03/14 13:47:21;;;;;;;;;;;13.30;99.90;;;;;;5035277;28;19928;-84
2022/03/14 13:49:58;;;;;;;;;;;13.50;99.90;;;;;;5035378;28;20019;-82
2022/03/14 13:52:27;;;;;;;;;;;13.60;99.90;;;;;;5035090;28;19924;-83
2022/03/14 13:54:53;;;;;;;;;;;13.60;99.90;;;;;;5036516;28;19925;-83
2022/03/14 13:57:22;;;;;;;;;;;13.60;99.90;;;;;;5047422;28;19967;-84
2022/03/14 13:59:49;;;;;;;;;;;13.60;99.90;;;;;;5054994;28;19953;-84
2022/03/14 14:02:16;;;;;;;;;;;13.70;99.90;;;;;;5055477;28;20007;-81
2022/03/14 14:04:45;;;;;;;;;;;13.60;99.90;;;;;;5043581;28;19921;-82
2022/03/14 14:07:21;;;;;;;;;;;13.50;99.90;;;;;;5040534;28;20386;-82
2022/03/14 14:09:47;;;;;;;;;;;13.50;99.90;;;;;;5036098;28;19990;-82
2022/03/14 14:12:16;;;;;;;;;;;13.50;99.90;;;;;;5035183;28;19917;-82
2022/03/14 14:14:45;;;;;;;;;;;13.40;99.90;;;;;;5055572;28;19947;-82
2022/03/14 14:17:14;;;;;;;;;;;13.40;99.90;;;;;;5061226;28;19924;-82
2022/03/14 14:20:00;;;;;;;;;;;13.40;99.90;;;;;;5053872;28;19920;-82
2022/03/14 14:22:35;;;;;;;;;;;13.60;99.90;;;;;;5048313;28;19921;-82
2022/03/14 14:25:02;;;;;;;;;;;13.70;99.90;;;;;;5035219;28;19955;-82
2022/03/14 14:27:28;;;;;;;;;;;13.90;99.90;;;;;;5034576;28;19952;-82